Time;durP1;ratioP1;P1;durP2;ratioP2;P2;SDS_P1;SDS_P2;PMS_P1;PMS_P2;Temp;Humidity;BMP_temperature;BMP_pressure;BME280_temperature;BME280_humidity;BME280_pressure;Samples;Min_cycle;Max_cycle;Signal;HPM_P1;HPM_P2
2022/01/21 00:00:12;;;;;;;4.90;0.63;;;0.90;99.90;;;;;;5032353;28;20200;-75
2022/01/21 00:02:38;;;;;;;5.30;1.13;;;1.00;99.90;;;;;;5014152;28;20661;-74
2022/01/21 00:05:05;;;;;;;0.00;0.00;;;1.00;99.90;;;;;;5032152;28;20198;-74
2022/01/21 00:07:31;;;;;;;0.40;0.40;;;1.00;99.90;;;;;;5032284;28;20170;-74
2022/01/21 00:09:56;;;;;;;0.30;0.30;;;1.10;99.90;;;;;;5033821;28;20592;-74
2022/01/21 00:12:22;;;;;;;1.13;1.13;;;1.10;99.90;;;;;;5032069;28;20226;-75
2022/01/21 00:14:48;;;;;;;4.13;2.43;;;1.10;99.90;;;;;;5032327;28;20196;-75
2022/01/21 00:17:16;;;;;;;0.10;0.10;;;1.10;99.90;;;;;;5031824;28;20716;-74
2022/01/21 00:19:45;;;;;;;0.00;0.00;;;1.10;99.90;;;;;;5032011;28;20175;-75
2022/01/21 00:30:25;;;;;;;0.90;0.90;;;1.10;99.90;;;;;;5051650;28;20208;-74
2022/01/21 00:32:51;;;;;;;17.37;0.93;;;1.00;99.90;;;;;;5051430;28;20183;-75
2022/01/21 00:35:18;;;;;;;3.77;1.13;;;1.00;99.90;;;;;;5017759;28;20553;-75
2022/01/21 00:37:45;;;;;;;0.17;0.17;;;1.00;99.90;;;;;;5031932;28;20173;-74
2022/01/21 00:40:14;;;;;;;0.17;0.17;;;1.00;99.90;;;;;;5031926;28;20189;-75
2022/01/21 00:45:12;;;;;;;1.03;0.73;;;0.90;99.90;;;;;;5044955;28;20668;-75
2022/01/21 00:47:37;;;;;;;0.20;0.20;;;0.90;99.90;;;;;;5031574;28;20174;-75
2022/01/21 00:50:04;;;;;;;0.30;0.30;;;0.80;99.90;;;;;;5031522;28;20253;-74
2022/01/21 00:52:30;;;;;;;0.20;0.20;;;0.80;99.90;;;;;;5031321;28;20193;-75
2022/01/21 00:54:55;;;;;;;0.00;0.00;;;0.80;99.90;;;;;;5031627;28;20174;-75
2022/01/21 00:57:21;;;;;;;0.00;0.00;;;0.90;99.90;;;;;;5013889;28;20177;-74
2022/01/21 00:59:46;;;;;;;0.30;0.30;;;0.80;99.90;;;;;;5031347;28;20665;-74
2022/01/21 01:02:12;;;;;;;0.00;0.00;;;0.70;99.90;;;;;;5042185;28;20213;-73
2022/01/21 01:04:38;;;;;;;1.60;1.50;;;0.70;99.90;;;;;;5046875;28;20293;-73
2022/01/21 01:07:04;;;;;;;0.00;0.00;;;0.70;99.90;;;;;;5031422;28;20186;-74
2022/01/21 01:09:30;;;;;;;2.67;1.13;;;0.70;99.90;;;;;;5031354;28;20206;-72
2022/01/21 01:22:21;;;;;;;1.60;1.57;;;0.60;99.90;;;;;;5030763;28;20202;-72
2022/01/21 01:27:44;;;;;;;0.20;0.20;;;0.60;99.90;;;;;;5031250;28;20236;-72
2022/01/21 01:32:45;;;;;;;1.00;1.00;;;0.70;99.90;;;;;;5087880;22;20259;-74
2022/01/21 01:35:14;;;;;;;10.57;1.40;;;0.70;99.90;;;;;;5070566;28;20271;-74
2022/01/21 01:40:29;;;;;;;0.00;0.00;;;0.60;99.90;;;;;;5072977;28;20272;-73
2022/01/21 01:51:17;;;;;;;0.43;0.43;;;0.80;99.90;;;;;;5071510;28;20323;-71
2022/01/21 01:53:46;;;;;;;0.60;0.60;;;0.80;99.90;;;;;;5053305;28;20185;-74
2022/01/21 01:56:14;;;;;;;8.03;1.80;;;0.80;99.90;;;;;;5071655;28;20184;-74
2022/01/21 01:58:42;;;;;;;0.47;0.47;;;0.90;99.90;;;;;;5073482;28;20218;-73
2022/01/21 02:01:08;;;;;;;0.70;0.70;;;0.90;99.90;;;;;;5075287;28;20243;-73
2022/01/21 02:03:36;;;;;;;3.60;0.97;;;0.90;99.90;;;;;;5075547;28;20188;-73
2022/01/21 02:06:02;;;;;;;1.90;0.50;;;0.90;99.90;;;;;;5058936;28;20188;-73
2022/01/21 02:08:30;;;;;;;0.60;0.60;;;0.90;99.90;;;;;;5055560;28;20265;-72
2022/01/21 02:10:56;;;;;;;0.20;0.20;;;0.90;99.90;;;;;;5055084;28;20208;-73
2022/01/21 02:13:25;;;;;;;0.10;0.10;;;1.00;99.90;;;;;;5055674;28;20238;-72
2022/01/21 02:16:17;;;;;;;2.37;2.27;;;0.90;99.90;;;;;;5038536;28;20739;-71
2022/01/21 02:21:36;;;;;;;0.07;0.07;;;0.90;99.90;;;;;;5056267;28;20293;-73
2022/01/21 02:24:11;;;;;;;0.10;0.10;;;0.90;99.90;;;;;;5056359;28;20631;-72
2022/01/21 02:26:37;;;;;;;1.20;1.13;;;0.90;99.90;;;;;;5056748;28;20176;-72
2022/01/21 02:29:05;;;;;;;1.40;1.30;;;0.90;99.90;;;;;;5056234;28;20313;-75
2022/01/21 02:31:31;;;;;;;0.30;0.30;;;0.90;99.90;;;;;;5038155;28;20232;-74
2022/01/21 02:33:57;;;;;;;0.33;0.33;;;0.90;99.90;;;;;;5056151;28;20188;-73
2022/01/21 02:36:23;;;;;;;2.43;1.23;;;0.90;99.90;;;;;;5056660;28;20670;-72
2022/01/21 02:38:48;;;;;;;1.00;0.33;;;0.90;99.90;;;;;;5056747;28;20177;-74
2022/01/21 02:41:14;;;;;;;0.10;0.10;;;1.00;99.90;;;;;;5056458;28;20220;-73
2022/01/21 02:43:39;;;;;;;2.97;1.93;;;1.00;99.90;;;;;;5037592;28;20209;-72
2022/01/21 02:46:08;;;;;;;0.00;0.00;;;1.00;99.90;;;;;;5055916;28;20182;-73
2022/01/21 02:48:38;;;;;;;0.60;0.60;;;1.10;99.90;;;;;;5056244;28;20200;-72
2022/01/21 02:51:09;;;;;;;0.20;0.20;;;1.10;99.90;;;;;;5056068;28;20188;-72
2022/01/21 02:56:17;;;;;;;0.10;0.10;;;1.00;99.90;;;;;;5055700;28;20190;-72
2022/01/21 02:58:43;;;;;;;0.40;0.40;;;1.00;99.90;;;;;;5062823;28;20212;-73
2022/01/21 03:01:08;;;;;;;0.27;0.27;;;1.10;99.90;;;;;;5036382;28;20197;-73
2022/01/21 03:03:34;;;;;;;0.30;0.30;;;1.10;99.90;;;;;;5054406;28;20199;-73
2022/01/21 03:06:01;;;;;;;0.87;0.87;;;1.20;99.90;;;;;;5036813;28;20178;-73
2022/01/21 03:08:27;;;;;;;0.47;0.47;;;1.20;99.90;;;;;;5054320;28;20181;-73
2022/01/21 03:10:53;;;;;;;0.10;0.10;;;1.20;99.90;;;;;;5053007;28;20289;-73
2022/01/21 03:13:22;;;;;;;0.20;0.20;;;1.20;99.90;;;;;;5054890;28;20207;-73
2022/01/21 03:15:48;;;;;;;0.73;0.70;;;1.30;99.90;;;;;;5055150;28;20200;-73
2022/01/21 03:18:14;;;;;;;1.50;0.73;;;1.30;99.90;;;;;;5037136;28;20181;-73
2022/01/21 03:20:40;;;;;;;1.10;0.97;;;1.30;99.90;;;;;;5054786;28;20210;-72
2022/01/21 03:23:06;;;;;;;0.00;0.00;;;1.30;99.90;;;;;;5064024;28;20738;-73
2022/01/21 03:25:31;;;;;;;0.10;0.10;;;1.30;99.90;;;;;;5074022;28;20251;-74
2022/01/21 03:27:57;;;;;;;17.60;2.90;;;1.30;99.90;;;;;;5074153;28;20176;-73
2022/01/21 03:30:22;;;;;;;0.00;0.00;;;1.30;99.90;;;;;;5058154;28;20166;-73
2022/01/21 03:32:48;;;;;;;0.93;0.73;;;1.30;99.90;;;;;;5036378;28;20193;-74
2022/01/21 03:35:13;;;;;;;0.40;0.40;;;1.30;99.90;;;;;;5054974;28;20192;-73
2022/01/21 03:37:39;;;;;;;0.60;0.60;;;1.30;99.90;;;;;;5036892;28;20185;-73
2022/01/21 03:40:05;;;;;;;0.00;0.00;;;1.40;99.90;;;;;;5055039;28;20222;-73
2022/01/21 03:42:31;;;;;;;0.67;0.67;;;1.40;99.90;;;;;;5054494;28;20489;-73
2022/01/21 03:44:57;;;;;;;0.00;0.00;;;1.40;99.90;;;;;;5053961;28;20294;-73
2022/01/21 03:47:22;;;;;;;5.13;1.17;;;1.40;99.90;;;;;;5054422;28;20180;-73
2022/01/21 03:49:54;;;;;;;0.10;0.10;;;1.40;99.90;;;;;;5054102;28;20706;-74
2022/01/21 03:52:20;;;;;;;0.57;0.57;;;1.50;99.90;;;;;;5053602;28;20246;-74
2022/01/21 03:54:46;;;;;;;0.40;0.40;;;1.50;99.90;;;;;;5036510;28;20185;-74
2022/01/21 03:57:12;;;;;;;1.97;1.87;;;1.50;99.90;;;;;;5042433;28;20177;-73
2022/01/21 03:59:37;;;;;;;0.97;0.97;;;1.50;99.90;;;;;;5070467;28;20185;-73
2022/01/21 04:02:07;;;;;;;1.47;1.37;;;1.50;99.90;;;;;;5073573;28;20200;-73
2022/01/21 04:04:33;;;;;;;1.40;1.40;;;1.50;99.90;;;;;;5070925;28;20735;-73
2022/01/21 04:06:59;;;;;;;0.63;0.63;;;1.50;99.90;;;;;;5054010;28;20242;-73
2022/01/21 04:09:25;;;;;;;0.97;0.90;;;1.50;99.90;;;;;;5035641;28;20181;-73
2022/01/21 04:11:51;;;;;;;2.00;1.80;;;1.50;99.90;;;;;;5052967;28;20197;-73
2022/01/21 04:14:17;;;;;;;1.10;1.10;;;1.50;99.90;;;;;;5053875;28;20197;-73
2022/01/21 04:16:43;;;;;;;0.10;0.10;;;1.50;99.90;;;;;;5053792;28;20196;-73
2022/01/21 04:19:08;;;;;;;0.20;0.20;;;1.50;99.90;;;;;;5057770;28;20219;-73
2022/01/21 04:21:34;;;;;;;2.57;2.23;;;1.60;99.90;;;;;;5072423;28;20223;-73
2022/01/21 04:24:01;;;;;;;4.53;2.00;;;1.60;99.90;;;;;;5055486;28;20360;-74
2022/01/21 04:26:27;;;;;;;0.97;0.97;;;1.60;99.90;;;;;;5054805;28;20674;-73
2022/01/21 04:28:52;;;;;;;3.93;1.90;;;1.60;99.90;;;;;;5072626;28;20195;-74
2022/01/21 04:31:18;;;;;;;1.07;1.03;;;1.70;99.90;;;;;;5072502;28;20213;-72
2022/01/21 04:33:43;;;;;;;1.80;1.13;;;1.70;99.90;;;;;;5073484;28;20184;-74
2022/01/21 04:36:09;;;;;;;0.50;0.50;;;1.70;99.90;;;;;;5054355;28;20191;-74
2022/01/21 04:38:36;;;;;;;0.10;0.10;;;1.70;99.90;;;;;;5072313;28;20180;-74
2022/01/21 04:47:11;;;;;;;0.40;0.40;;;1.70;99.90;;;;;;5072106;28;20205;-74
2022/01/21 04:49:21;;;;;;;0.40;0.40;;;1.60;99.90;;;;;;5052181;28;20176;-73
2022/01/21 04:52:02;;;;;;;7.70;0.37;;;1.60;99.90;;;;;;5035648;28;20642;-74
2022/01/21 04:54:29;;;;;;;0.87;0.87;;;1.60;99.90;;;;;;5040257;28;20215;-73
2022/01/21 04:56:55;;;;;;;0.33;0.33;;;1.60;99.90;;;;;;5051670;28;20270;-74
2022/01/21 04:59:20;;;;;;;0.17;0.17;;;1.60;99.90;;;;;;5051612;28;20260;-74
2022/01/21 05:01:46;;;;;;;0.67;0.67;;;1.60;99.90;;;;;;5051272;28;20265;-73
2022/01/21 05:04:12;;;;;;;0.33;0.33;;;1.60;99.90;;;;;;5051599;28;20676;-74
2022/01/21 05:06:39;;;;;;;1.03;1.03;;;1.60;99.90;;;;;;5052248;28;20178;-74
2022/01/21 05:09:05;;;;;;;0.33;0.33;;;1.60;99.90;;;;;;5034370;28;20181;-72
2022/01/21 05:11:35;;;;;;;0.60;0.60;;;1.60;99.90;;;;;;5056154;28;20193;-73
2022/01/21 05:14:13;;;;;;;1.33;1.33;;;1.60;99.90;;;;;;5059810;28;20174;-73
2022/01/21 05:16:45;;;;;;;0.37;0.37;;;1.60;99.90;;;;;;5068939;28;20248;-73
2022/01/21 05:19:16;;;;;;;0.10;0.10;;;1.60;99.90;;;;;;5059453;28;20595;-73
2022/01/21 05:21:43;;;;;;;0.07;0.07;;;1.50;99.90;;;;;;5036060;28;20219;-73
2022/01/21 05:24:08;;;;;;;0.60;0.60;;;1.60;99.90;;;;;;5048052;28;20283;-73
2022/01/21 05:26:39;;;;;;;0.30;0.30;;;1.60;99.90;;;;;;5052882;28;20193;-73
2022/01/21 05:29:06;;;;;;;0.10;0.10;;;1.60;99.90;;;;;;5052465;28;20173;-73
2022/01/21 05:31:32;;;;;;;0.43;0.43;;;1.60;99.90;;;;;;5051929;28;20297;-73
2022/01/21 05:33:58;;;;;;;0.20;0.20;;;1.60;99.90;;;;;;5054780;28;20652;-73
2022/01/21 05:36:24;;;;;;;0.23;0.23;;;1.60;99.90;;;;;;5054775;28;20224;-73
2022/01/21 05:38:49;;;;;;;0.40;0.40;;;1.60;99.90;;;;;;5038878;28;20178;-73
2022/01/21 05:41:18;;;;;;;0.47;0.47;;;1.60;99.90;;;;;;5056542;28;20203;-73
2022/01/21 05:43:46;;;;;;;0.63;0.33;;;1.60;99.90;;;;;;5054807;28;20190;-73
2022/01/21 05:46:23;;;;;;;0.43;0.43;;;1.70;99.90;;;;;;5037429;28;20185;-73
2022/01/21 05:48:49;;;;;;;0.63;0.63;;;1.70;99.90;;;;;;5055376;28;20173;-73
2022/01/21 05:51:16;;;;;;;0.00;0.00;;;1.60;99.90;;;;;;5054076;28;20205;-72
2022/01/21 05:53:42;;;;;;;4.10;1.33;;;1.60;99.90;;;;;;5053894;28;20187;-73
2022/01/21 05:56:08;;;;;;;0.53;0.53;;;1.60;99.90;;;;;;5053056;28;20185;-73
2022/01/21 05:58:33;;;;;;;0.93;0.93;;;1.70;99.90;;;;;;5053988;28;20177;-74
2022/01/21 06:00:59;;;;;;;0.67;0.67;;;1.70;99.90;;;;;;5055232;28;20212;-73
2022/01/21 06:03:25;;;;;;;15.30;0.63;;;1.70;99.90;;;;;;5054140;28;20198;-69
2022/01/21 06:05:51;;;;;;;5.27;1.37;;;1.70;99.90;;;;;;5054920;28;20181;-73
2022/01/21 06:08:17;;;;;;;2.33;1.47;;;1.70;99.90;;;;;;5055209;28;20604;-73
2022/01/21 06:10:43;;;;;;;0.10;0.10;;;1.80;99.90;;;;;;5055388;28;20197;-73
2022/01/21 06:13:08;;;;;;;0.90;0.83;;;1.70;99.90;;;;;;5059965;28;20223;-73
2022/01/21 06:15:35;;;;;;;0.10;0.10;;;1.70;99.90;;;;;;5058133;28;20202;-73
2022/01/21 06:18:00;;;;;;;2.53;2.43;;;1.70;99.90;;;;;;5055701;28;20202;-72
2022/01/21 06:20:26;;;;;;;0.10;0.10;;;1.70;99.90;;;;;;5036004;28;20204;-72
2022/01/21 06:22:51;;;;;;;0.20;0.20;;;1.60;99.90;;;;;;5053395;28;20173;-70
2022/01/21 06:25:17;;;;;;;0.07;0.07;;;1.60;99.90;;;;;;5053808;28;20197;-72
2022/01/21 06:27:45;;;;;;;0.20;0.20;;;1.60;99.90;;;;;;5053868;28;20264;-72
2022/01/21 06:30:11;;;;;;;4.83;2.43;;;1.60;99.90;;;;;;5035771;28;20178;-72
2022/01/21 06:32:36;;;;;;;0.60;0.60;;;1.50;99.90;;;;;;5053244;28;20307;-72
2022/01/21 06:35:03;;;;;;;0.00;0.00;;;1.50;99.90;;;;;;5053677;28;20324;-72
2022/01/21 06:37:29;;;;;;;0.73;0.73;;;1.50;99.90;;;;;;5035731;28;20204;-73
2022/01/21 06:39:54;;;;;;;0.10;0.10;;;1.50;99.90;;;;;;5053803;28;20715;-72
2022/01/21 06:42:23;;;;;;;1.07;1.03;;;1.60;99.90;;;;;;5035574;28;20209;-70
2022/01/21 06:44:49;;;;;;;0.30;0.30;;;1.60;99.90;;;;;;5053448;28;20599;-72
2022/01/21 06:47:16;;;;;;;0.37;0.37;;;1.60;99.90;;;;;;5053900;28;20270;-72
2022/01/21 06:49:41;;;;;;;0.10;0.10;;;1.60;99.90;;;;;;5053755;28;20173;-72
2022/01/21 06:52:07;;;;;;;0.17;0.17;;;1.60;99.90;;;;;;5053420;28;20195;-72
2022/01/21 06:54:33;;;;;;;0.10;0.10;;;1.60;99.90;;;;;;5035583;28;20591;-72
2022/01/21 06:56:58;;;;;;;1.03;1.03;;;1.60;99.90;;;;;;5035500;28;20186;-72
2022/01/21 06:59:24;;;;;;;6.77;1.33;;;1.70;99.90;;;;;;5053945;28;20617;-73
2022/01/21 07:01:49;;;;;;;0.10;0.10;;;1.70;99.90;;;;;;5054461;28;20576;-73
2022/01/21 07:04:15;;;;;;;2.67;1.37;;;1.70;99.90;;;;;;5053023;28;20205;-72
2022/01/21 07:06:40;;;;;;;0.83;0.83;;;1.70;99.90;;;;;;5052534;28;20192;-72
2022/01/21 07:09:06;;;;;;;0.57;0.57;;;1.70;99.90;;;;;;5036729;28;20220;-72
2022/01/21 07:11:31;;;;;;;0.00;0.00;;;1.70;99.90;;;;;;5052533;28;20236;-72
2022/01/21 07:13:57;;;;;;;0.30;0.30;;;1.70;99.90;;;;;;5052949;28;20190;-73
2022/01/21 07:16:23;;;;;;;0.20;0.20;;;1.70;99.90;;;;;;5052347;28;20178;-73
2022/01/21 07:18:48;;;;;;;0.23;0.23;;;1.80;99.90;;;;;;5038986;28;20181;-73
2022/01/21 07:21:14;;;;;;;1.90;1.80;;;1.80;99.90;;;;;;5052039;28;20208;-72
2022/01/21 07:23:39;;;;;;;2.13;2.03;;;1.80;99.90;;;;;;5043541;28;20893;-72
2022/01/21 07:26:05;;;;;;;0.30;0.30;;;1.80;99.90;;;;;;5056629;28;20696;-73
2022/01/21 07:28:32;;;;;;;4.33;1.20;;;1.80;99.90;;;;;;5052994;28;20169;-73
2022/01/21 07:30:58;;;;;;;0.30;0.30;;;1.80;99.90;;;;;;5059310;22;20196;-73
2022/01/21 07:33:24;;;;;;;1.70;0.53;;;1.80;99.90;;;;;;5042399;28;20194;-75
2022/01/21 07:35:49;;;;;;;0.40;0.40;;;1.80;99.90;;;;;;5064831;28;20196;-75
2022/01/21 07:38:15;;;;;;;0.63;0.53;;;1.90;99.90;;;;;;5057934;28;20578;-75
2022/01/21 07:40:41;;;;;;;0.63;0.63;;;1.90;99.90;;;;;;5052484;28;20637;-76
2022/01/21 07:43:07;;;;;;;0.63;0.43;;;1.90;99.90;;;;;;5051979;28;20194;-76
2022/01/21 07:45:33;;;;;;;0.20;0.20;;;1.90;99.90;;;;;;5052159;28;20185;-76
2022/01/21 07:47:58;;;;;;;1.33;0.63;;;1.90;99.90;;;;;;5052434;28;20195;-75
2022/01/21 07:50:24;;;;;;;0.20;0.20;;;1.90;99.90;;;;;;5052563;28;20684;-76
2022/01/21 07:52:49;;;;;;;0.13;0.13;;;1.90;99.90;;;;;;5051982;28;20215;-75
2022/01/21 07:55:15;;;;;;;0.80;0.60;;;1.90;99.90;;;;;;5051712;28;20194;-75
2022/01/21 07:57:40;;;;;;;0.30;0.30;;;1.90;99.90;;;;;;5052275;28;20260;-75
2022/01/21 08:00:07;;;;;;;0.63;0.63;;;1.80;99.90;;;;;;5052076;28;20715;-75
2022/01/21 08:02:34;;;;;;;0.30;0.30;;;1.80;99.90;;;;;;5051861;28;20254;-75
2022/01/21 08:05:02;;;;;;;0.20;0.20;;;1.80;99.90;;;;;;5051924;28;20359;-76
2022/01/21 08:07:28;;;;;;;1.20;1.20;;;1.80;99.90;;;;;;5051840;28;20181;-75
2022/01/21 08:09:53;;;;;;;0.43;0.43;;;1.80;99.90;;;;;;5051889;28;20177;-76
2022/01/21 08:12:19;;;;;;;0.10;0.10;;;1.80;99.90;;;;;;5060506;28;20683;-76
2022/01/21 08:14:45;;;;;;;2.93;2.73;;;1.80;99.90;;;;;;5033723;28;20185;-75
2022/01/21 08:17:11;;;;;;;2.50;0.60;;;1.80;99.90;;;;;;5051735;28;20177;-76
2022/01/21 08:19:37;;;;;;;0.63;0.60;;;1.80;99.90;;;;;;5054239;28;20264;-76
2022/01/21 08:22:03;;;;;;;2.33;1.03;;;1.90;99.90;;;;;;5059019;28;20193;-75
2022/01/21 08:24:29;;;;;;;0.97;0.97;;;1.90;99.90;;;;;;5051479;28;20252;-76
2022/01/21 08:26:55;;;;;;;0.70;0.70;;;2.00;99.90;;;;;;5051333;28;20197;-76
2022/01/21 08:29:20;;;;;;;0.27;0.23;;;2.00;99.90;;;;;;5046536;28;20173;-75
2022/01/21 08:31:46;;;;;;;0.83;0.83;;;2.00;99.90;;;;;;5016822;28;20620;-75
2022/01/21 08:34:13;;;;;;;0.30;0.30;;;2.10;99.90;;;;;;5020539;28;20661;-75
2022/01/21 08:36:39;;;;;;;0.43;0.43;;;2.10;99.90;;;;;;5051282;28;20269;-76
2022/01/21 08:39:06;;;;;;;3.07;1.17;;;2.10;99.90;;;;;;5033163;28;20268;-75
2022/01/21 08:41:33;;;;;;;1.03;1.03;;;2.10;99.90;;;;;;5055509;28;20193;-76
2022/01/21 08:43:58;;;;;;;1.33;1.27;;;2.10;99.90;;;;;;5051278;28;20225;-76
2022/01/21 08:46:24;;;;;;;0.33;0.33;;;2.10;99.90;;;;;;5050727;28;20688;-75
2022/01/21 08:48:51;;;;;;;0.10;0.10;;;2.10;99.90;;;;;;5051878;28;20173;-74
2022/01/21 08:51:24;;;;;;;0.30;0.30;;;2.10;99.90;;;;;;5033280;28;20201;-75
2022/01/21 08:53:50;;;;;;;0.40;0.40;;;2.10;99.90;;;;;;5033561;28;20219;-76
2022/01/21 08:56:18;;;;;;;0.47;0.47;;;2.10;99.90;;;;;;5051101;28;20233;-76
2022/01/21 08:58:45;;;;;;;0.20;0.20;;;2.10;99.90;;;;;;5050435;28;20624;-74
2022/01/21 09:01:11;;;;;;;0.43;0.43;;;2.10;99.90;;;;;;5037229;28;20249;-76
2022/01/21 09:03:38;;;;;;;5.00;3.60;;;2.10;99.90;;;;;;5050825;28;20207;-76
2022/01/21 09:06:04;;;;;;;1.60;0.83;;;2.20;99.90;;;;;;5051029;28;20181;-75
2022/01/21 09:08:30;;;;;;;0.20;0.20;;;2.20;99.90;;;;;;5053508;28;20541;-76
2022/01/21 09:10:58;;;;;;;0.33;0.33;;;2.10;99.90;;;;;;5054934;28;20181;-75
2022/01/21 09:13:27;;;;;;;0.93;0.93;;;2.10;99.90;;;;;;5036916;28;20202;-75
2022/01/21 09:15:57;;;;;;;0.30;0.30;;;2.10;99.90;;;;;;5055089;28;20172;-75
2022/01/21 09:18:25;;;;;;;0.53;0.53;;;2.20;99.90;;;;;;5055056;28;20173;-74
2022/01/21 09:20:51;;;;;;;0.47;0.47;;;2.20;99.90;;;;;;5036940;28;20177;-76
2022/01/21 09:23:16;;;;;;;0.40;0.40;;;2.30;99.90;;;;;;5036717;28;20638;-75
2022/01/21 09:25:42;;;;;;;0.53;0.53;;;2.30;99.90;;;;;;5054685;28;20181;-75
2022/01/21 09:28:08;;;;;;;0.40;0.40;;;2.30;99.90;;;;;;5036991;28;20173;-76
2022/01/21 09:30:34;;;;;;;2.77;1.10;;;2.30;99.90;;;;;;5054811;28;20205;-75
2022/01/21 09:32:59;;;;;;;0.87;0.87;;;2.40;99.90;;;;;;5036596;28;20265;-75
2022/01/21 09:35:25;;;;;;;0.10;0.10;;;2.50;99.90;;;;;;5054853;28;20183;-75
2022/01/21 09:37:51;;;;;;;0.17;0.17;;;2.60;99.90;;;;;;5054670;28;20200;-75
2022/01/21 09:40:16;;;;;;;2.10;0.83;;;2.60;99.90;;;;;;5054475;28;20197;-75
2022/01/21 09:42:45;;;;;;;0.23;0.23;;;2.70;99.90;;;;;;5054272;28;20307;-75
2022/01/21 09:45:13;;;;;;;0.83;0.83;;;2.70;99.90;;;;;;5054298;28;20229;-75
2022/01/21 09:47:47;;;;;;;0.70;0.70;;;2.60;99.90;;;;;;5054626;28;20248;-76
2022/01/21 09:50:17;;;;;;;0.20;0.20;;;2.60;99.90;;;;;;5054480;28;20253;-76
2022/01/21 09:52:49;;;;;;;0.30;0.30;;;2.70;99.90;;;;;;5061937;28;20211;-76
2022/01/21 09:55:17;;;;;;;0.80;0.80;;;2.70;99.90;;;;;;5060523;28;20170;-76
2022/01/21 09:57:47;;;;;;;0.10;0.10;;;2.80;99.90;;;;;;5047915;28;20183;-76
2022/01/21 10:00:13;;;;;;;0.10;0.10;;;2.80;99.90;;;;;;5061585;28;20183;-75
2022/01/21 10:02:40;;;;;;;2.07;1.90;;;2.90;99.90;;;;;;5055330;28;20763;-75
2022/01/21 10:05:06;;;;;;;0.50;0.50;;;2.90;99.90;;;;;;5036116;28;20341;-76
2022/01/21 10:07:34;;;;;;;0.10;0.10;;;3.10;99.90;;;;;;5061878;28;20214;-76
2022/01/21 10:10:07;;;;;;;0.00;0.00;;;3.20;99.90;;;;;;5062600;28;20682;-76
2022/01/21 10:12:32;;;;;;;1.33;1.33;;;3.30;99.90;;;;;;5044270;28;20778;-76
2022/01/21 10:14:58;;;;;;;1.53;0.87;;;3.20;99.90;;;;;;5062005;28;20254;-77
2022/01/21 10:17:23;;;;;;;0.43;0.43;;;3.20;99.90;;;;;;5057942;28;20889;-77
2022/01/21 10:19:51;;;;;;;0.10;0.10;;;3.30;99.90;;;;;;5062424;28;20669;-76
2022/01/21 10:22:21;;;;;;;0.97;0.93;;;3.60;99.90;;;;;;5057355;28;20212;-75
2022/01/21 10:24:57;;;;;;;1.17;0.97;;;3.70;99.90;;;;;;5035937;28;20211;-76
2022/01/21 10:27:40;;;;;;;0.43;0.40;;;3.70;99.90;;;;;;5053705;28;20182;-75
2022/01/21 10:30:28;;;;;;;0.73;0.73;;;3.70;99.90;;;;;;5059088;28;20207;-76
2022/01/21 10:32:55;;;;;;;0.47;0.47;;;3.70;99.90;;;;;;5057187;28;20251;-76
2022/01/21 10:35:20;;;;;;;0.97;0.97;;;3.90;99.90;;;;;;5053829;28;20256;-75
2022/01/21 10:37:46;;;;;;;2.73;2.53;;;4.00;99.90;;;;;;5053553;28;20176;-76
2022/01/21 10:40:12;;;;;;;2.23;1.87;;;4.00;99.90;;;;;;5052558;28;20257;-76
2022/01/21 10:42:38;;;;;;;0.90;0.60;;;4.00;99.90;;;;;;5035261;28;20201;-76
2022/01/21 10:45:07;;;;;;;1.57;1.00;;;4.00;99.90;;;;;;5053463;28;20644;-76
2022/01/21 10:47:35;;;;;;;0.20;0.20;;;3.90;99.90;;;;;;5053193;28;20191;-76
2022/01/21 10:50:11;;;;;;;5.37;1.30;;;3.90;99.90;;;;;;5053115;28;20272;-76
2022/01/21 10:52:46;;;;;;;0.70;0.70;;;3.90;99.90;;;;;;5053063;28;20571;-77
2022/01/21 10:55:35;;;;;;;0.93;0.93;;;3.80;99.90;;;;;;5053278;28;20184;-76
2022/01/21 10:58:18;;;;;;;0.20;0.20;;;3.80;99.90;;;;;;5053464;28;20191;-73
2022/01/21 11:01:00;;;;;;;0.40;0.40;;;3.80;99.90;;;;;;5053614;28;20177;-75
2022/01/21 11:03:29;;;;;;;9.23;1.60;;;4.00;99.90;;;;;;5052469;28;20188;-76
2022/01/21 11:06:08;;;;;;;0.60;0.60;;;4.00;99.90;;;;;;5053240;28;20173;-76
2022/01/21 11:08:34;;;;;;;0.33;0.33;;;3.90;99.90;;;;;;5053024;28;20690;-76
2022/01/21 11:10:59;;;;;;;0.20;0.20;;;4.00;99.90;;;;;;5052509;28;20770;-75
2022/01/21 11:13:26;;;;;;;0.27;0.27;;;4.10;99.90;;;;;;5035404;28;20189;-75
2022/01/21 11:15:56;;;;;;;0.10;0.10;;;4.10;99.90;;;;;;5052977;28;20181;-76
2022/01/21 11:18:22;;;;;;;0.20;0.20;;;4.20;99.90;;;;;;5031510;28;20170;-75
2022/01/21 11:20:57;;;;;;;1.80;0.53;;;4.30;99.90;;;;;;5023435;28;20174;-74
2022/01/21 11:23:27;;;;;;;1.03;1.03;;;4.40;99.90;;;;;;5041529;28;20541;-75
2022/01/21 11:25:57;;;;;;;0.30;0.30;;;4.40;99.90;;;;;;5040756;28;20638;-75
2022/01/21 11:28:25;;;;;;;0.10;0.10;;;4.50;99.90;;;;;;5024976;28;20235;-75
2022/01/21 11:30:53;;;;;;;2.73;2.57;;;4.60;99.90;;;;;;5042649;28;20257;-74
2022/01/21 11:33:19;;;;;;;7.77;2.30;;;4.90;99.90;;;;;;5063253;28;20268;-75
2022/01/21 11:35:48;;;;;;;0.20;0.20;;;4.80;99.90;;;;;;5050378;28;20208;-74
2022/01/21 11:38:17;;;;;;;0.00;0.00;;;4.70;99.90;;;;;;5049985;28;20173;-76
2022/01/21 11:40:44;;;;;;;0.40;0.40;;;4.70;99.90;;;;;;5039141;28;20189;-75
2022/01/21 11:43:11;;;;;;;4.80;2.67;;;4.80;99.90;;;;;;5052189;28;20230;-75
2022/01/21 11:50:49;;;;;;;0.70;0.70;;;4.80;99.90;;;;;;5052238;28;20199;-75
2022/01/21 11:53:35;;;;;;;9.93;1.20;;;4.80;99.90;;;;;;5052140;28;20199;-75
2022/01/21 11:56:06;;;;;;;0.93;0.93;;;4.80;99.90;;;;;;5051832;28;20196;-75
2022/01/21 11:58:32;;;;;;;0.43;0.43;;;4.90;99.90;;;;;;5051943;28;20181;-75
2022/01/21 12:00:57;;;;;;;0.27;0.27;;;5.10;99.90;;;;;;5051985;28;20196;-75
2022/01/21 12:03:23;;;;;;;1.63;1.53;;;5.00;99.90;;;;;;5051620;28;20185;-74
2022/01/21 12:05:50;;;;;;;0.40;0.40;;;4.80;99.90;;;;;;5051954;28;20675;-75
2022/01/21 12:08:46;;;;;;;0.10;0.10;;;4.70;99.90;;;;;;5052133;28;20245;-75
2022/01/21 12:11:32;;;;;;;1.43;1.33;;;4.80;99.90;;;;;;5028769;28;20202;-75
2022/01/21 12:13:59;;;;;;;0.83;0.83;;;4.70;99.90;;;;;;5046146;28;20177;-75
2022/01/21 12:16:55;;;;;;;1.07;1.07;;;4.60;99.90;;;;;;5051704;28;20189;-75
2022/01/21 12:19:37;;;;;;;0.20;0.20;;;4.70;99.90;;;;;;5059946;28;20267;-74
2022/01/21 12:22:17;;;;;;;0.10;0.10;;;4.60;99.90;;;;;;5051268;28;20197;-75
2022/01/21 12:24:55;;;;;;;0.43;0.33;;;4.60;99.90;;;;;;5053191;28;20197;-74
2022/01/21 12:27:23;;;;;;;0.33;0.33;;;4.60;99.90;;;;;;5049262;28;20575;-74
2022/01/21 12:29:49;;;;;;;0.10;0.10;;;4.70;99.90;;;;;;5051434;28;20255;-74
2022/01/21 12:32:22;;;;;;;0.43;0.43;;;4.70;99.90;;;;;;5033007;28;20217;-74
2022/01/21 12:35:01;;;;;;;1.33;1.23;;;4.80;99.90;;;;;;5051412;28;20230;-74
2022/01/21 12:37:39;;;;;;;0.93;0.90;;;4.80;99.90;;;;;;5051279;28;20683;-74
2022/01/21 12:40:05;;;;;;;19.53;2.27;;;4.80;99.90;;;;;;5050856;28;20678;-75
2022/01/21 12:42:35;;;;;;;0.10;0.10;;;4.90;99.90;;;;;;5049464;28;20213;-75
2022/01/21 12:45:07;;;;;;;0.00;0.00;;;4.90;99.90;;;;;;5048845;28;20217;-75
2022/01/21 12:47:39;;;;;;;1.33;0.83;;;5.00;99.90;;;;;;5048760;28;20185;-75
2022/01/21 12:50:11;;;;;;;1.70;1.60;;;5.20;99.90;;;;;;5050981;28;20264;-75
2022/01/21 12:53:07;;;;;;;2.10;1.90;;;5.30;99.90;;;;;;5050660;28;20568;-75
2022/01/21 12:55:55;;;;;;;0.30;0.30;;;5.30;99.90;;;;;;5051079;28;20228;-75
2022/01/21 12:58:26;;;;;;;2.33;1.60;;;5.20;99.90;;;;;;5050988;28;20204;-75
2022/01/21 13:00:59;;;;;;;0.20;0.20;;;5.10;99.90;;;;;;5050956;28;20185;-75
2022/01/21 13:03:43;;;;;;;0.20;0.20;;;5.10;99.90;;;;;;5032794;28;20725;-75
2022/01/21 13:06:37;;;;;;;0.20;0.20;;;5.30;99.90;;;;;;5051059;28;20203;-74
2022/01/21 13:09:12;;;;;;;0.30;0.30;;;5.20;99.90;;;;;;5050962;28;20176;-75
2022/01/21 13:11:42;;;;;;;1.13;1.13;;;5.30;99.90;;;;;;5050603;28;20204;-74
2022/01/21 13:14:26;;;;;;;0.87;0.87;;;5.30;99.90;;;;;;5051320;28;20200;-75
2022/01/21 13:17:16;;;;;;;1.60;1.47;;;5.00;99.90;;;;;;5033266;28;20238;-75
2022/01/21 13:19:53;;;;;;;0.30;0.30;;;5.00;99.90;;;;;;5050300;28;20193;-74
2022/01/21 13:22:19;;;;;;;0.13;0.13;;;4.80;99.90;;;;;;5050332;28;20545;-75
2022/01/21 13:25:13;;;;;;;0.13;0.13;;;4.80;99.90;;;;;;5050784;28;20274;-74
2022/01/21 13:27:52;;;;;;;0.20;0.20;;;4.70;99.90;;;;;;5050874;28;20248;-75
2022/01/21 13:30:20;;;;;;;5.10;2.40;;;4.80;99.90;;;;;;5050800;28;20623;-75
2022/01/21 13:32:46;;;;;;;0.30;0.30;;;4.70;99.90;;;;;;5104270;22;20314;-72
2022/01/21 13:35:18;;;;;;;0.90;0.90;;;4.80;99.90;;;;;;5070290;28;20188;-73
2022/01/21 13:38:07;;;;;;;0.10;0.10;;;4.80;99.90;;;;;;5068251;28;20295;-73
2022/01/21 13:40:37;;;;;;;0.70;0.70;;;4.80;99.90;;;;;;5071545;28;20262;-75
2022/01/21 13:43:17;;;;;;;3.80;1.50;;;4.80;99.90;;;;;;5054796;28;20189;-74
2022/01/21 13:45:56;;;;;;;1.93;1.83;;;4.80;99.90;;;;;;5051259;28;20687;-73
2022/01/21 13:48:23;;;;;;;0.20;0.20;;;4.80;99.90;;;;;;5051488;28;20184;-74
2022/01/21 13:50:50;;;;;;;0.70;0.70;;;4.80;99.90;;;;;;5052309;28;20563;-74
2022/01/21 13:53:15;;;;;;;0.47;0.47;;;4.80;99.90;;;;;;5049911;28;20197;-74
2022/01/21 13:55:45;;;;;;;1.97;1.80;;;4.80;99.90;;;;;;5055625;28;20193;-72
2022/01/21 13:58:21;;;;;;;0.43;0.40;;;4.80;99.90;;;;;;5063121;28;20181;-72